createdAt,value
2023-11-18T00:02:04.592Z,79.68
2023-11-18T00:04:31.541Z,79.38
2023-11-18T00:06:59.998Z,79.32
2023-11-18T00:09:26.763Z,79.51
2023-11-18T00:11:54.940Z,80.37
2023-11-18T00:14:22.224Z,79.83
2023-11-18T00:16:49.083Z,79.65
2023-11-18T00:19:15.703Z,80.11
2023-11-18T00:21:43.657Z,77.37
2023-11-18T00:24:10.551Z,80.05
2023-11-18T00:26:37.244Z,79.80
2023-11-18T00:29:05.660Z,79.71
2023-11-18T00:31:32.498Z,79.52
2023-11-18T00:33:59.220Z,79.39
2023-11-18T00:36:25.819Z,79.45
2023-11-18T00:38:52.439Z,78.66
2023-11-18T00:41:19.040Z,77.42
2023-11-18T00:43:45.785Z,80.60
2023-11-18T00:46:13.959Z,80.15
2023-11-18T00:48:40.647Z,79.61
2023-11-18T00:51:07.524Z,79.38
2023-11-18T00:53:34.157Z,79.74
2023-11-18T00:56:01.963Z,79.56
2023-11-18T00:58:29.960Z,76.89
2023-11-18T01:00:56.665Z,79.52
2023-11-18T01:03:24.791Z,81.15
2023-11-18T01:05:51.688Z,77.87
2023-11-18T01:08:18.474Z,79.43
2023-11-18T01:10:45.286Z,81.84
2023-11-18T01:13:12.060Z,81.18
2023-11-18T01:15:38.722Z,81.39
2023-11-18T01:18:07.528Z,80.54
2023-11-18T01:20:35.644Z,80.27
2023-11-18T01:23:02.369Z,79.74
2023-11-18T01:25:29.153Z,79.87
2023-11-18T01:27:55.804Z,80.28
2023-11-18T01:30:24.664Z,80.23
2023-11-18T01:32:51.479Z,80.25
2023-11-18T01:35:18.354Z,80.27
2023-11-18T01:37:46.390Z,80.40
2023-11-18T01:40:14.200Z,77.89
2023-11-18T01:42:43.400Z,80.33
2023-11-18T01:45:12.916Z,80.08
2023-11-18T01:47:41.076Z,77.83
2023-11-18T01:50:10.929Z,80.28
2023-11-18T01:52:37.996Z,79.74
2023-11-18T01:55:09.526Z,79.79
2023-11-18T01:57:36.372Z,79.35
2023-11-18T02:02:42.936Z,80.64
2023-11-18T02:05:09.776Z,80.17
2023-11-18T02:07:38.401Z,79.97
2023-11-18T02:10:10.420Z,79.98
2023-11-18T02:12:44.357Z,79.93
2023-11-18T02:15:13.831Z,79.91
2023-11-18T02:17:46.098Z,79.63
2023-11-18T02:20:22.332Z,79.42
2023-11-18T02:22:49.824Z,79.47
2023-11-18T02:25:19.714Z,79.71
2023-11-18T02:27:49.050Z,79.57
2023-11-18T02:30:18.176Z,78.93
2023-11-18T02:32:49.099Z,79.33
2023-11-18T02:35:21.425Z,79.69
2023-11-18T02:37:50.523Z,79.75
2023-11-18T02:40:21.164Z,76.45
2023-11-18T02:42:54.050Z,79.79
2023-11-18T02:45:22.079Z,79.98
2023-11-18T02:47:49.894Z,79.46
2023-11-18T02:50:16.878Z,79.80
2023-11-18T02:52:43.767Z,79.37
2023-11-18T02:55:10.920Z,79.32
2023-11-18T02:57:37.989Z,79.02
2023-11-18T03:00:13.342Z,78.95
2023-11-18T03:02:40.556Z,77.24
2023-11-18T03:05:08.758Z,79.76
2023-11-18T03:07:35.531Z,79.71
2023-11-18T03:10:02.215Z,79.39
2023-11-18T03:12:29.274Z,79.59
2023-11-18T03:14:56.419Z,79.28
2023-11-18T03:17:24.442Z,79.36
2023-11-18T03:19:51.714Z,79.17
2023-11-18T03:22:18.569Z,79.10
2023-11-18T03:24:45.221Z,79.55
2023-11-18T03:27:12.083Z,79.41
2023-11-18T03:29:38.823Z,79.09
2023-11-18T03:32:06.737Z,79.71
2023-11-18T03:34:35.050Z,79.31
2023-11-18T03:37:01.789Z,79.66
2023-11-18T03:39:28.686Z,78.83
2023-11-18T03:41:58.111Z,80.02
2023-11-18T03:44:27.528Z,79.60
2023-11-18T03:46:54.125Z,78.72
2023-11-18T03:49:21.974Z,79.18
2023-11-18T03:51:50.336Z,79.77
2023-11-18T03:54:16.921Z,80.02
2023-11-18T03:56:43.523Z,79.68
2023-11-18T03:59:10.595Z,79.69
2023-11-18T04:01:37.453Z,82.57
2023-11-18T04:04:05.378Z,80.55
2023-11-18T04:06:33.352Z,77.63
2023-11-18T04:09:01.340Z,79.71
2023-11-18T04:11:27.982Z,79.89
2023-11-18T04:13:54.655Z,79.43
2023-11-18T04:16:21.503Z,79.47
2023-11-18T04:18:48.249Z,79.61
2023-11-18T04:21:15.057Z,79.96
2023-11-18T04:23:43.352Z,79.43
2023-11-18T04:26:11.454Z,80.78
2023-11-18T04:28:38.461Z,80.08
2023-11-18T04:31:08.924Z,79.91
2023-11-18T04:33:35.592Z,79.78
2023-11-18T04:36:02.532Z,79.76
2023-11-18T04:38:29.421Z,79.67
2023-11-18T04:40:56.372Z,79.72
2023-11-18T04:43:34.483Z,79.52
2023-11-18T04:46:06.708Z,79.50
2023-11-18T04:48:34.266Z,79.75
2023-11-18T04:51:01.305Z,79.19
2023-11-18T04:53:27.924Z,75.94
2023-11-18T04:55:54.656Z,80.12
2023-11-18T04:58:21.977Z,80.42
2023-11-18T05:00:49.967Z,79.71
2023-11-18T05:03:17.429Z,79.65
2023-11-18T05:05:44.776Z,79.50
2023-11-18T05:08:20.245Z,79.60
2023-11-18T05:10:48.349Z,79.29
2023-11-18T05:13:17.508Z,79.71
2023-11-18T05:15:46.257Z,79.61
2023-11-18T05:18:15.920Z,79.27
2023-11-18T05:20:43.644Z,77.94
2023-11-18T05:23:11.137Z,78.81
2023-11-18T05:25:38.197Z,79.35
2023-11-18T05:28:06.157Z,79.12
2023-11-18T05:30:32.877Z,78.97
2023-11-18T05:32:59.626Z,79.34
2023-11-18T05:35:29.623Z,79.47
2023-11-18T05:37:56.574Z,79.28
2023-11-18T05:40:23.952Z,79.18
2023-11-18T05:42:52.896Z,79.33
2023-11-18T05:45:29.186Z,79.22
2023-11-18T05:47:56.611Z,79.56
2023-11-18T05:50:23.374Z,78.97
2023-11-18T05:52:51.455Z,78.99
2023-11-18T05:55:18.161Z,78.86
2023-11-18T05:57:46.049Z,79.37
2023-11-18T06:00:20.988Z,79.65
2023-11-18T06:02:52.841Z,79.68
2023-11-18T06:05:19.734Z,79.34
2023-11-18T06:07:48.441Z,79.28
2023-11-18T06:10:16.527Z,79.08
2023-11-18T06:12:43.145Z,78.89
2023-11-18T06:15:15.539Z,78.93
2023-11-18T06:17:45.400Z,79.33
2023-11-18T06:20:15.321Z,78.97
2023-11-18T06:22:42.005Z,79.31
2023-11-18T06:25:09.834Z,79.06
2023-11-18T06:27:37.776Z,79.02
2023-11-18T06:30:05.279Z,79.43
2023-11-18T06:32:32.281Z,78.96
2023-11-18T06:35:01.965Z,79.14
2023-11-18T06:37:33.284Z,78.83
2023-11-18T06:40:00.007Z,78.77
2023-11-18T06:42:26.634Z,78.77
2023-11-18T06:44:54.930Z,78.88
2023-11-18T06:47:21.694Z,79.07
2023-11-18T06:49:53.420Z,79.24
2023-11-18T06:52:20.214Z,76.15
2023-11-18T06:54:46.854Z,79.64
2023-11-18T06:57:13.527Z,81.32
2023-11-18T06:59:40.395Z,80.04
2023-11-18T07:02:08.439Z,79.80
2023-11-18T07:04:35.054Z,79.82
2023-11-18T07:07:02.899Z,79.60
2023-11-18T07:09:29.496Z,79.62
2023-11-18T07:11:57.179Z,79.44
2023-11-18T07:14:23.877Z,79.66
2023-11-18T07:16:50.581Z,79.29
2023-11-18T07:19:22.415Z,79.51
2023-11-18T07:21:50.461Z,79.41
2023-11-18T07:24:18.227Z,79.61
2023-11-18T07:26:46.274Z,79.71
2023-11-18T07:29:13.027Z,79.46
2023-11-18T07:31:39.717Z,77.51
2023-11-18T07:34:09.112Z,79.58
2023-11-18T07:36:37.081Z,78.49
2023-11-18T07:39:04.838Z,81.03
2023-11-18T07:41:33.768Z,77.94
2023-11-18T07:44:01.557Z,77.85
2023-11-18T07:46:29.940Z,77.99
2023-11-18T07:48:57.945Z,77.57
2023-11-18T07:51:25.710Z,77.34
2023-11-18T07:53:54.127Z,72.72
2023-11-18T07:56:23.538Z,74.28
2023-11-18T07:58:51.570Z,71.92
2023-11-18T08:01:18.806Z,69.25
2023-11-18T08:03:45.896Z,68.04
2023-11-18T08:06:13.537Z,65.66
2023-11-18T08:08:41.971Z,63.98
2023-11-18T08:11:12.017Z,68.65
2023-11-18T08:13:38.727Z,73.61
2023-11-18T08:16:08.398Z,74.15
2023-11-18T08:18:36.664Z,73.48
2023-11-18T08:21:04.093Z,64.87
2023-11-18T08:23:31.561Z,66.78
2023-11-18T08:25:58.334Z,68.72
2023-11-18T08:28:26.888Z,60.65
2023-11-18T08:30:54.002Z,60.76
2023-11-18T08:33:21.222Z,59.87
2023-11-18T08:35:48.762Z,64.33
2023-11-18T08:38:15.519Z,62.95
2023-11-18T08:40:43.977Z,68.21
2023-11-18T08:43:10.848Z,67.37
2023-11-18T08:45:38.788Z,65.22
2023-11-18T08:48:09.872Z,73.25
2023-11-18T08:50:37.837Z,67.87
2023-11-18T08:53:10.883Z,63.00
2023-11-18T08:55:52.485Z,69.80
2023-11-18T08:58:29.678Z,74.26
2023-11-18T09:01:06.891Z,63.62
2023-11-18T09:03:36.969Z,68.94
2023-11-18T09:06:06.661Z,64.03
2023-11-18T09:08:37.516Z,71.88
2023-11-18T09:11:09.228Z,65.81
2023-11-18T09:13:36.611Z,63.77
2023-11-18T09:16:12.269Z,63.99
2023-11-18T09:18:43.261Z,55.79
2023-11-18T09:21:16.190Z,61.56
2023-11-18T09:23:44.457Z,63.37
2023-11-18T09:26:11.688Z,61.64
2023-11-18T09:28:39.614Z,61.80
2023-11-18T09:31:12.473Z,70.75
2023-11-18T09:33:41.079Z,59.05
2023-11-18T09:36:09.293Z,62.94
2023-11-18T09:38:37.029Z,61.50
2023-11-18T09:41:08.533Z,57.87
2023-11-18T09:43:46.763Z,62.73
2023-11-18T09:46:16.005Z,64.86
2023-11-18T09:48:46.694Z,62.72
2023-11-18T09:51:22.284Z,60.26
2023-11-18T09:53:53.543Z,55.17
2023-11-18T09:56:35.411Z,58.72
2023-11-18T09:59:08.135Z,55.63
2023-11-18T10:01:43.980Z,58.36
2023-11-18T10:04:12.280Z,61.06
2023-11-18T10:06:42.040Z,61.09
2023-11-18T10:09:18.745Z,63.01
2023-11-18T10:11:48.001Z,69.01
2023-11-18T10:14:16.832Z,67.52
2023-11-18T10:16:48.557Z,66.41
2023-11-18T10:19:19.213Z,67.15
2023-11-18T10:21:50.576Z,63.50
2023-11-18T10:24:21.172Z,57.63
2023-11-18T10:26:58.858Z,68.75
2023-11-18T10:29:29.515Z,70.60
2023-11-18T10:32:17.099Z,57.94
2023-11-18T10:34:43.984Z,55.72
2023-11-18T10:37:12.081Z,55.41
2023-11-18T10:39:38.926Z,68.21
2023-11-18T10:42:06.319Z,69.30
2023-11-18T10:44:33.009Z,69.16
2023-11-18T10:47:00.185Z,54.30
2023-11-18T10:49:29.424Z,56.96
2023-11-18T10:51:57.629Z,61.49
2023-11-18T10:54:27.458Z,59.78
2023-11-18T10:56:58.000Z,52.49
2023-11-18T10:59:26.356Z,57.46
2023-11-18T11:01:53.329Z,57.36
2023-11-18T11:04:22.937Z,56.16
2023-11-18T11:06:54.796Z,64.67
2023-11-18T11:09:25.764Z,58.32
2023-11-18T11:11:55.453Z,60.40
2023-11-18T11:14:23.226Z,58.04
2023-11-18T11:16:55.222Z,62.11
2023-11-18T11:19:27.430Z,59.57
2023-11-18T11:22:02.757Z,57.41
2023-11-18T11:24:43.341Z,66.67
2023-11-18T11:27:18.534Z,66.21
2023-11-18T11:29:53.195Z,58.41
2023-11-18T11:32:31.509Z,65.71
2023-11-18T11:35:09.088Z,68.87
2023-11-18T11:37:39.102Z,61.29
2023-11-18T11:40:11.706Z,56.83
2023-11-18T11:42:41.250Z,58.58
2023-11-18T11:45:21.044Z,66.32
2023-11-18T11:47:51.388Z,58.89
2023-11-18T11:50:32.526Z,70.06
2023-11-18T11:53:08.431Z,59.21
2023-11-18T11:55:39.717Z,59.96
2023-11-18T11:58:26.611Z,60.38
2023-11-18T12:00:55.454Z,59.49
2023-11-18T12:03:23.807Z,59.91
2023-11-18T12:05:50.622Z,61.47
2023-11-18T12:08:19.797Z,64.53
2023-11-18T12:10:53.575Z,65.06
2023-11-18T12:13:21.157Z,60.52
2023-11-18T12:15:55.653Z,60.39
2023-11-18T12:18:23.234Z,65.12
2023-11-18T12:20:55.133Z,61.49
2023-11-18T12:23:26.912Z,60.97
2023-11-18T12:25:59.090Z,63.46
2023-11-18T12:28:35.417Z,69.79
2023-11-18T12:31:18.533Z,73.13
2023-11-18T12:34:01.851Z,61.66
2023-11-18T12:36:59.955Z,63.11
2023-11-18T12:40:14.412Z,65.29
2023-11-18T12:43:00.279Z,70.27
2023-11-18T12:46:21.084Z,73.47
2023-11-18T12:48:52.188Z,73.07
2023-11-18T12:51:21.852Z,74.41
2023-11-18T12:53:50.012Z,75.05
2023-11-18T12:56:20.245Z,73.64
2023-11-18T12:58:49.004Z,74.15
2023-11-18T13:01:17.185Z,74.31
2023-11-18T13:03:45.395Z,71.30
2023-11-18T13:06:15.517Z,74.95
2023-11-18T13:08:42.900Z,74.21
2023-11-18T13:11:17.257Z,74.80
2023-11-18T13:13:47.345Z,75.53
2023-11-18T13:16:15.936Z,75.73
2023-11-18T13:18:45.330Z,70.73
2023-11-18T13:21:15.431Z,74.52
2023-11-18T13:23:43.018Z,73.15
2023-11-18T13:26:10.872Z,64.83
2023-11-18T13:28:40.366Z,70.38
2023-11-18T13:31:11.687Z,71.66
2023-11-18T13:33:39.777Z,68.49
2023-11-18T13:36:07.819Z,68.14
2023-11-18T13:38:34.544Z,68.84
2023-11-18T13:41:04.608Z,67.50
2023-11-18T13:43:43.203Z,68.21
2023-11-18T13:46:14.435Z,63.01
2023-11-18T13:48:41.591Z,63.82
2023-11-18T13:51:13.925Z,67.53
2023-11-18T13:53:42.048Z,71.21
2023-11-18T13:56:10.272Z,72.43
2023-11-18T13:58:39.777Z,73.44
2023-11-18T14:01:08.645Z,72.08
2023-11-18T14:03:39.961Z,73.08
2023-11-18T14:06:18.470Z,72.18
2023-11-18T14:08:45.729Z,71.70
2023-11-18T14:11:16.621Z,72.03
2023-11-18T14:13:44.850Z,72.19
2023-11-18T14:16:13.787Z,71.81
2023-11-18T14:18:43.116Z,68.11
2023-11-18T14:21:10.554Z,72.44
2023-11-18T14:23:38.996Z,72.93
2023-11-18T14:26:07.036Z,72.45
2023-11-18T14:28:35.791Z,73.69
2023-11-18T14:31:05.412Z,74.30
2023-11-18T14:33:34.368Z,73.19
2023-11-18T14:36:02.499Z,72.64
2023-11-18T14:38:32.083Z,72.88
2023-11-18T14:40:59.858Z,73.19
2023-11-18T14:43:26.618Z,72.73
2023-11-18T14:45:53.664Z,72.93
2023-11-18T14:48:20.446Z,73.24
2023-11-18T14:50:49.919Z,72.73
2023-11-18T14:53:20.972Z,72.56
2023-11-18T14:55:47.620Z,72.85
2023-11-18T14:58:14.620Z,73.35
2023-11-18T15:00:41.307Z,73.09
2023-11-18T15:03:08.229Z,73.41
2023-11-18T15:05:35.564Z,70.08
2023-11-18T15:08:02.321Z,72.04
2023-11-18T15:10:30.378Z,72.63
2023-11-18T15:13:02.565Z,73.32
2023-11-18T15:15:34.776Z,73.07
2023-11-18T15:18:06.594Z,70.04
2023-11-18T15:20:35.580Z,71.99
2023-11-18T15:23:05.666Z,72.05
2023-11-18T15:25:35.249Z,76.12
2023-11-18T15:28:02.068Z,74.47
2023-11-18T15:30:28.923Z,74.44
2023-11-18T15:32:55.886Z,74.35
2023-11-18T15:35:23.145Z,73.75
2023-11-18T15:37:51.294Z,74.53
2023-11-18T15:40:21.302Z,74.12
2023-11-18T15:42:49.730Z,74.25
2023-11-18T15:45:18.175Z,74.36
2023-11-18T15:47:45.015Z,74.15
2023-11-18T15:50:17.122Z,74.24
2023-11-18T15:52:45.237Z,73.38
2023-11-18T15:55:15.085Z,74.06
2023-11-18T15:57:42.478Z,74.23
2023-11-18T16:00:21.464Z,73.48
2023-11-18T16:02:49.796Z,73.87
2023-11-18T16:05:21.862Z,73.63
2023-11-18T16:07:52.188Z,73.93
2023-11-18T16:10:22.641Z,73.78
2023-11-18T16:12:52.503Z,69.26
2023-11-18T16:15:20.805Z,73.87
2023-11-18T16:17:48.027Z,73.90
2023-11-18T16:20:18.946Z,74.26
2023-11-18T16:22:50.444Z,73.96
2023-11-18T16:25:19.294Z,74.14
2023-11-18T16:27:49.172Z,74.62
2023-11-18T16:30:18.240Z,72.37
2023-11-18T16:32:50.253Z,76.14
2023-11-18T16:35:17.613Z,72.78
2023-11-18T16:37:44.612Z,77.23
2023-11-18T16:40:15.493Z,77.51
2023-11-18T16:42:42.306Z,75.10
2023-11-18T16:45:12.421Z,74.23
2023-11-18T16:47:40.556Z,74.75
2023-11-18T16:50:10.318Z,74.52
2023-11-18T16:52:37.132Z,74.39
2023-11-18T16:55:04.217Z,73.69
2023-11-18T16:57:31.801Z,73.79
2023-11-18T16:59:59.041Z,74.08
2023-11-18T17:02:25.864Z,70.60
2023-11-18T17:04:53.517Z,74.82
2023-11-18T17:07:23.171Z,74.33
2023-11-18T17:09:49.947Z,73.94
2023-11-18T17:12:16.546Z,74.39
2023-11-18T17:14:43.230Z,72.79
2023-11-18T17:17:10.032Z,75.24
2023-11-18T17:19:39.776Z,74.71
2023-11-18T17:22:09.535Z,74.51
2023-11-18T17:24:39.171Z,74.86
2023-11-18T17:27:07.925Z,74.69
2023-11-18T17:29:34.651Z,73.43
2023-11-18T17:32:01.503Z,73.88
2023-11-18T17:34:29.337Z,73.38
2023-11-18T17:36:56.030Z,73.63
2023-11-18T17:39:24.983Z,73.23
2023-11-18T17:41:53.104Z,74.86
2023-11-18T17:44:19.782Z,74.08
2023-11-18T17:46:46.761Z,74.35
2023-11-18T17:49:13.935Z,72.46
2023-11-18T17:51:40.671Z,73.44
2023-11-18T17:54:07.794Z,74.29
2023-11-18T17:56:34.480Z,73.90
2023-11-18T17:59:02.574Z,73.86
2023-11-18T18:01:29.257Z,74.20
2023-11-18T18:03:55.918Z,74.13
2023-11-18T18:06:22.627Z,74.29
2023-11-18T18:08:49.253Z,73.82
2023-11-18T18:11:17.759Z,72.25
2023-11-18T18:13:45.128Z,73.50
2023-11-18T18:16:15.128Z,73.47
2023-11-18T18:18:41.937Z,68.61
2023-11-18T18:21:08.535Z,74.23
2023-11-18T18:23:35.194Z,74.64
2023-11-18T18:26:01.968Z,74.26
2023-11-18T18:28:28.618Z,74.08
2023-11-18T18:30:55.265Z,73.68
2023-11-18T18:33:23.341Z,73.85
2023-11-18T18:35:49.965Z,73.69
2023-11-18T18:38:16.752Z,73.31
2023-11-18T18:40:43.897Z,74.18
2023-11-18T18:43:11.720Z,74.06
2023-11-18T18:45:38.401Z,74.20
2023-11-18T18:48:05.899Z,74.34
2023-11-18T18:50:38.528Z,74.43
2023-11-18T18:53:05.368Z,74.56
2023-11-18T18:55:32.030Z,74.61
2023-11-18T18:57:58.845Z,74.21
2023-11-18T19:00:25.645Z,73.95
2023-11-18T19:02:53.616Z,74.53
2023-11-18T19:05:24.689Z,74.66
2023-11-18T19:07:56.506Z,74.22
2023-11-18T19:10:23.429Z,74.20
2023-11-18T19:12:50.530Z,74.14
2023-11-18T19:15:17.399Z,75.07
2023-11-18T19:17:45.597Z,75.01
2023-11-18T19:20:15.841Z,74.87
2023-11-18T19:22:43.011Z,74.57
2023-11-18T19:25:13.942Z,74.34
2023-11-18T19:30:13.252Z,74.31
2023-11-18T19:32:40.002Z,74.36
2023-11-18T19:35:07.870Z,74.60
2023-11-18T19:37:34.772Z,74.43
2023-11-18T19:40:06.104Z,74.37
2023-11-18T19:42:34.369Z,74.71
2023-11-18T19:45:01.029Z,74.52
2023-11-18T19:47:29.796Z,74.68
2023-11-18T19:49:58.730Z,74.63
2023-11-18T19:52:25.515Z,74.82
2023-11-18T19:54:52.299Z,74.42
2023-11-18T19:57:18.880Z,73.85
2023-11-18T19:59:47.174Z,74.63
2023-11-18T20:02:14.452Z,74.54
2023-11-18T20:04:42.902Z,74.45
2023-11-18T20:07:09.676Z,75.47
2023-11-18T20:09:36.425Z,72.03
2023-11-18T20:12:04.971Z,76.43
2023-11-18T20:14:32.279Z,71.77
2023-11-18T20:17:00.544Z,78.23
2023-11-18T20:19:30.096Z,76.99
2023-11-18T20:21:58.787Z,75.95
2023-11-18T20:24:25.479Z,75.12
2023-11-18T20:26:52.112Z,73.25
2023-11-18T20:29:18.844Z,78.46
2023-11-18T20:31:45.851Z,76.68
2023-11-18T20:34:13.879Z,73.69
2023-11-18T20:36:41.114Z,75.63
2023-11-18T20:39:08.474Z,76.50
2023-11-18T20:41:35.171Z,73.77
2023-11-18T20:44:02.829Z,75.34
2023-11-18T20:46:29.495Z,77.70
2023-11-18T20:48:56.200Z,75.94
2023-11-18T20:51:24.233Z,75.24
2023-11-18T20:53:51.671Z,75.39
2023-11-18T20:56:20.947Z,75.25
2023-11-18T20:58:48.796Z,77.03
2023-11-18T21:01:16.922Z,75.97
2023-11-18T21:03:44.076Z,75.37
2023-11-18T21:06:11.276Z,75.51
2023-11-18T21:08:39.382Z,74.76
2023-11-18T21:11:08.293Z,75.05
2023-11-18T21:13:39.522Z,75.19
2023-11-18T21:16:07.625Z,75.11
2023-11-18T21:18:34.572Z,74.51
2023-11-18T21:21:03.496Z,76.81
2023-11-18T21:23:31.916Z,75.22
2023-11-18T21:26:00.139Z,75.21
2023-11-18T21:28:26.791Z,75.10
2023-11-18T21:30:54.419Z,75.52
2023-11-18T21:33:22.420Z,75.50
2023-11-18T21:35:50.051Z,74.79
2023-11-18T21:38:16.769Z,75.15
2023-11-18T21:40:43.486Z,75.41
2023-11-18T21:43:12.844Z,75.41
2023-11-18T21:45:39.531Z,75.43
2023-11-18T21:48:07.636Z,75.07
2023-11-18T21:50:34.810Z,75.39
2023-11-18T21:53:03.383Z,75.52
2023-11-18T21:55:30.294Z,75.95
2023-11-18T21:57:56.941Z,75.80
2023-11-18T22:00:25.398Z,76.08
2023-11-18T22:02:53.380Z,76.06
2023-11-18T22:05:20.517Z,75.81
2023-11-18T22:07:47.875Z,75.04
2023-11-18T22:10:19.381Z,78.46
2023-11-18T22:12:46.311Z,76.40
2023-11-18T22:15:17.747Z,76.74
2023-11-18T22:17:46.530Z,76.51
2023-11-18T22:20:15.305Z,75.99
2023-11-18T22:22:42.413Z,76.18
2023-11-18T22:25:09.875Z,75.72
2023-11-18T22:27:40.903Z,75.63
2023-11-18T22:30:09.014Z,76.45
2023-11-18T22:32:38.649Z,76.25
2023-11-18T22:35:08.276Z,76.95
2023-11-18T22:37:35.500Z,79.16
2023-11-18T22:40:02.412Z,77.70
2023-11-18T22:42:34.130Z,76.36
2023-11-18T22:45:00.980Z,78.79
2023-11-18T22:47:27.790Z,75.92
2023-11-18T22:49:54.456Z,78.34
2023-11-18T22:52:22.489Z,78.43
2023-11-18T22:54:49.163Z,77.24
2023-11-18T22:57:15.794Z,76.43
2023-11-18T22:59:42.415Z,80.11
2023-11-18T23:02:12.111Z,77.59
2023-11-18T23:04:38.643Z,77.12
2023-11-18T23:07:06.216Z,76.78
2023-11-18T23:09:34.143Z,76.76
2023-11-18T23:12:00.771Z,77.27
2023-11-18T23:14:29.449Z,77.35
2023-11-18T23:19:41.475Z,76.95
2023-11-18T23:22:14.141Z,76.18
2023-11-18T23:24:42.167Z,76.34
2023-11-18T23:27:09.360Z,78.47
2023-11-18T23:29:36.233Z,77.61
2023-11-18T23:32:03.072Z,76.95
2023-11-18T23:34:29.705Z,77.25
2023-11-18T23:36:56.328Z,77.01
2023-11-18T23:39:29.646Z,76.82
2023-11-18T23:41:58.662Z,78.34
2023-11-18T23:44:25.526Z,76.82
2023-11-18T23:46:53.152Z,76.74
2023-11-18T23:49:20.092Z,76.55
2023-11-18T23:51:47.282Z,77.98
2023-11-18T23:54:14.134Z,77.58
2023-11-18T23:56:40.983Z,77.03
2023-11-18T23:59:09.096Z,77.25
